sensor_id;sensor_type;location;lat;lon;timestamp;P1;durP1;ratioP1;P2;durP2;ratioP2
10667;SDS011;5382;42.136;24.796;2022-12-18T00:00:46;47.22;;;28.20;;
10667;SDS011;5382;42.136;24.796;2022-12-18T00:03:13;45.47;;;34.70;;
10667;SDS011;5382;42.136;24.796;2022-12-18T00:05:45;49.47;;;35.55;;
10667;SDS011;5382;42.136;24.796;2022-12-18T00:08:13;47.08;;;34.88;;
10667;SDS011;5382;42.136;24.796;2022-12-18T00:10:41;38.30;;;27.55;;
10667;SDS011;5382;42.136;24.796;2022-12-18T00:13:08;44.58;;;26.75;;
10667;SDS011;5382;42.136;24.796;2022-12-18T00:15:35;37.22;;;27.17;;
10667;SDS011;5382;42.136;24.796;2022-12-18T00:18:02;43.75;;;28.23;;
10667;SDS011;5382;42.136;24.796;2022-12-18T00:20:29;39.03;;;26.38;;
10667;SDS011;5382;42.136;24.796;2022-12-18T00:22:56;43.15;;;25.25;;
10667;SDS011;5382;42.136;24.796;2022-12-18T00:25:42;52.65;;;26.73;;
10667;SDS011;5382;42.136;24.796;2022-12-18T00:28:09;40.30;;;25.55;;
10667;SDS011;5382;42.136;24.796;2022-12-18T00:30:36;48.42;;;28.42;;
10667;SDS011;5382;42.136;24.796;2022-12-18T00:33:02;91.03;;;27.77;;
10667;SDS011;5382;42.136;24.796;2022-12-18T00:35:29;139.23;;;31.27;;
10667;SDS011;5382;42.136;24.796;2022-12-18T00:37:57;137.18;;;33.05;;
10667;SDS011;5382;42.136;24.796;2022-12-18T00:40:24;115.35;;;30.30;;
10667;SDS011;5382;42.136;24.796;2022-12-18T00:42:52;140.05;;;31.95;;
10667;SDS011;5382;42.136;24.796;2022-12-18T00:45:21;231.65;;;36.85;;
10667;SDS011;5382;42.136;24.796;2022-12-18T00:47:48;180.40;;;38.60;;
10667;SDS011;5382;42.136;24.796;2022-12-18T00:50:15;177.85;;;35.08;;
10667;SDS011;5382;42.136;24.796;2022-12-18T00:52:42;183.68;;;34.53;;
10667;SDS011;5382;42.136;24.796;2022-12-18T00:55:09;152.35;;;32.67;;
10667;SDS011;5382;42.136;24.796;2022-12-18T00:57:36;143.27;;;33.08;;
10667;SDS011;5382;42.136;24.796;2022-12-18T01:00:06;153.63;;;36.00;;
10667;SDS011;5382;42.136;24.796;2022-12-18T01:02:34;126.95;;;31.63;;
10667;SDS011;5382;42.136;24.796;2022-12-18T01:05:01;147.43;;;31.70;;
10667;SDS011;5382;42.136;24.796;2022-12-18T01:07:28;101.97;;;30.42;;
10667;SDS011;5382;42.136;24.796;2022-12-18T01:09:55;116.82;;;33.65;;
10667;SDS011;5382;42.136;24.796;2022-12-18T01:12:22;77.00;;;30.65;;
10667;SDS011;5382;42.136;24.796;2022-12-18T01:14:49;103.75;;;34.33;;
10667;SDS011;5382;42.136;24.796;2022-12-18T01:17:17;78.68;;;28.25;;
10667;SDS011;5382;42.136;24.796;2022-12-18T01:19:43;97.45;;;28.13;;
10667;SDS011;5382;42.136;24.796;2022-12-18T01:22:10;114.45;;;33.92;;
10667;SDS011;5382;42.136;24.796;2022-12-18T01:24:37;72.53;;;30.13;;
10667;SDS011;5382;42.136;24.796;2022-12-18T01:27:04;53.55;;;27.70;;
10667;SDS011;5382;42.136;24.796;2022-12-18T01:29:31;48.00;;;26.95;;
10667;SDS011;5382;42.136;24.796;2022-12-18T01:31:58;38.67;;;23.13;;
10667;SDS011;5382;42.136;24.796;2022-12-18T01:34:26;40.80;;;24.95;;
10667;SDS011;5382;42.136;24.796;2022-12-18T01:36:52;40.47;;;25.50;;
10667;SDS011;5382;42.136;24.796;2022-12-18T01:39:19;37.72;;;24.92;;
10667;SDS011;5382;42.136;24.796;2022-12-18T01:41:47;39.65;;;24.42;;
10667;SDS011;5382;42.136;24.796;2022-12-18T01:44:50;39.25;;;24.73;;
10667;SDS011;5382;42.136;24.796;2022-12-18T01:47:22;38.97;;;24.23;;
10667;SDS011;5382;42.136;24.796;2022-12-18T01:49:53;36.72;;;22.05;;
10667;SDS011;5382;42.136;24.796;2022-12-18T01:52:21;40.80;;;25.40;;
10667;SDS011;5382;42.136;24.796;2022-12-18T01:54:49;37.47;;;22.08;;
10667;SDS011;5382;42.136;24.796;2022-12-18T01:57:17;40.25;;;24.63;;
10667;SDS011;5382;42.136;24.796;2022-12-18T01:59:44;40.08;;;25.13;;
10667;SDS011;5382;42.136;24.796;2022-12-18T02:02:15;37.47;;;23.33;;
10667;SDS011;5382;42.136;24.796;2022-12-18T02:04:43;41.58;;;21.77;;
10667;SDS011;5382;42.136;24.796;2022-12-18T02:07:13;33.38;;;21.65;;
10667;SDS011;5382;42.136;24.796;2022-12-18T02:09:44;30.20;;;19.65;;
10667;SDS011;5382;42.136;24.796;2022-12-18T02:12:16;37.00;;;22.02;;
10667;SDS011;5382;42.136;24.796;2022-12-18T02:14:46;29.38;;;19.75;;
10667;SDS011;5382;42.136;24.796;2022-12-18T02:17:22;37.05;;;26.15;;
10667;SDS011;5382;42.136;24.796;2022-12-18T02:19:58;31.98;;;20.95;;
10667;SDS011;5382;42.136;24.796;2022-12-18T02:22:37;32.85;;;19.85;;
10667;SDS011;5382;42.136;24.796;2022-12-18T02:25:21;29.83;;;22.85;;
10667;SDS011;5382;42.136;24.796;2022-12-18T02:28:01;30.25;;;23.13;;
10667;SDS011;5382;42.136;24.796;2022-12-18T02:30:30;32.00;;;22.02;;
10667;SDS011;5382;42.136;24.796;2022-12-18T02:32:59;24.63;;;18.00;;
10667;SDS011;5382;42.136;24.796;2022-12-18T02:35:30;26.27;;;20.75;;
10667;SDS011;5382;42.136;24.796;2022-12-18T02:37:58;23.58;;;19.08;;
10667;SDS011;5382;42.136;24.796;2022-12-18T02:40:26;19.27;;;14.35;;
10667;SDS011;5382;42.136;24.796;2022-12-18T02:42:54;20.10;;;15.07;;
10667;SDS011;5382;42.136;24.796;2022-12-18T02:45:22;28.55;;;17.67;;
10667;SDS011;5382;42.136;24.796;2022-12-18T02:47:49;29.42;;;24.08;;
10667;SDS011;5382;42.136;24.796;2022-12-18T02:50:18;29.70;;;23.58;;
10667;SDS011;5382;42.136;24.796;2022-12-18T02:52:54;32.03;;;22.20;;
10667;SDS011;5382;42.136;24.796;2022-12-18T02:55:30;35.80;;;23.55;;
10667;SDS011;5382;42.136;24.796;2022-12-18T02:58:09;39.53;;;29.95;;
10667;SDS011;5382;42.136;24.796;2022-12-18T03:00:43;54.13;;;25.75;;
10667;SDS011;5382;42.136;24.796;2022-12-18T03:03:16;34.70;;;24.27;;
10667;SDS011;5382;42.136;24.796;2022-12-18T03:05:50;42.53;;;30.70;;
10667;SDS011;5382;42.136;24.796;2022-12-18T03:08:20;41.60;;;28.25;;
10667;SDS011;5382;42.136;24.796;2022-12-18T03:10:51;36.38;;;25.10;;
10667;SDS011;5382;42.136;24.796;2022-12-18T03:13:23;31.33;;;19.88;;
10667;SDS011;5382;42.136;24.796;2022-12-18T03:15:55;28.27;;;18.33;;
10667;SDS011;5382;42.136;24.796;2022-12-18T03:18:25;19.92;;;13.23;;
10667;SDS011;5382;42.136;24.796;2022-12-18T03:20:56;22.52;;;15.15;;
10667;SDS011;5382;42.136;24.796;2022-12-18T03:23:27;23.60;;;16.38;;
10667;SDS011;5382;42.136;24.796;2022-12-18T03:26:05;21.92;;;15.10;;
10667;SDS011;5382;42.136;24.796;2022-12-18T03:28:39;26.58;;;15.63;;
10667;SDS011;5382;42.136;24.796;2022-12-18T03:31:12;25.67;;;15.18;;
10667;SDS011;5382;42.136;24.796;2022-12-18T03:33:41;26.13;;;16.48;;
10667;SDS011;5382;42.136;24.796;2022-12-18T03:36:12;24.92;;;15.00;;
10667;SDS011;5382;42.136;24.796;2022-12-18T03:38:39;19.30;;;14.23;;
10667;SDS011;5382;42.136;24.796;2022-12-18T03:41:07;20.42;;;14.70;;
10667;SDS011;5382;42.136;24.796;2022-12-18T03:43:42;16.77;;;12.27;;
10667;SDS011;5382;42.136;24.796;2022-12-18T03:46:20;20.75;;;12.20;;
10667;SDS011;5382;42.136;24.796;2022-12-18T03:48:56;15.98;;;11.88;;
10667;SDS011;5382;42.136;24.796;2022-12-18T03:51:31;15.32;;;12.00;;
10667;SDS011;5382;42.136;24.796;2022-12-18T03:54:06;12.98;;;9.13;;
10667;SDS011;5382;42.136;24.796;2022-12-18T03:56:35;17.95;;;11.13;;
10667;SDS011;5382;42.136;24.796;2022-12-18T03:59:05;18.02;;;10.93;;
10667;SDS011;5382;42.136;24.796;2022-12-18T04:01:35;12.73;;;10.90;;
10667;SDS011;5382;42.136;24.796;2022-12-18T04:04:05;16.60;;;12.50;;
10667;SDS011;5382;42.136;24.796;2022-12-18T04:06:34;13.60;;;9.15;;
10667;SDS011;5382;42.136;24.796;2022-12-18T04:09:02;12.90;;;10.32;;
10667;SDS011;5382;42.136;24.796;2022-12-18T04:11:30;13.68;;;10.48;;
10667;SDS011;5382;42.136;24.796;2022-12-18T04:13:57;11.95;;;8.05;;
10667;SDS011;5382;42.136;24.796;2022-12-18T04:16:24;13.02;;;9.68;;
10667;SDS011;5382;42.136;24.796;2022-12-18T04:18:53;11.60;;;8.18;;
10667;SDS011;5382;42.136;24.796;2022-12-18T04:21:20;11.68;;;9.65;;
10667;SDS011;5382;42.136;24.796;2022-12-18T04:23:47;9.32;;;6.70;;
10667;SDS011;5382;42.136;24.796;2022-12-18T04:26:14;10.20;;;6.78;;
10667;SDS011;5382;42.136;24.796;2022-12-18T04:28:41;10.38;;;8.50;;
10667;SDS011;5382;42.136;24.796;2022-12-18T04:31:08;11.35;;;8.50;;
10667;SDS011;5382;42.136;24.796;2022-12-18T04:33:35;11.68;;;9.07;;
10667;SDS011;5382;42.136;24.796;2022-12-18T04:36:03;13.00;;;8.57;;
10667;SDS011;5382;42.136;24.796;2022-12-18T04:38:31;9.05;;;7.25;;
10667;SDS011;5382;42.136;24.796;2022-12-18T04:40:57;7.93;;;6.05;;
10667;SDS011;5382;42.136;24.796;2022-12-18T04:43:24;8.65;;;6.28;;
10667;SDS011;5382;42.136;24.796;2022-12-18T04:45:51;9.73;;;6.53;;
10667;SDS011;5382;42.136;24.796;2022-12-18T04:48:18;8.18;;;5.93;;
10667;SDS011;5382;42.136;24.796;2022-12-18T04:50:46;9.18;;;6.50;;
10667;SDS011;5382;42.136;24.796;2022-12-18T04:53:14;8.05;;;5.18;;
10667;SDS011;5382;42.136;24.796;2022-12-18T04:55:41;7.45;;;4.75;;
10667;SDS011;5382;42.136;24.796;2022-12-18T04:58:08;7.35;;;5.25;;
10667;SDS011;5382;42.136;24.796;2022-12-18T05:00:35;6.88;;;3.80;;
10667;SDS011;5382;42.136;24.796;2022-12-18T05:03:01;6.15;;;5.07;;
10667;SDS011;5382;42.136;24.796;2022-12-18T05:05:28;6.45;;;4.00;;
10667;SDS011;5382;42.136;24.796;2022-12-18T05:07:55;4.30;;;3.20;;
10667;SDS011;5382;42.136;24.796;2022-12-18T05:10:23;5.68;;;4.07;;
10667;SDS011;5382;42.136;24.796;2022-12-18T05:12:50;10.30;;;4.05;;
10667;SDS011;5382;42.136;24.796;2022-12-18T05:15:26;5.03;;;3.95;;
10667;SDS011;5382;42.136;24.796;2022-12-18T05:17:55;5.70;;;3.85;;
10667;SDS011;5382;42.136;24.796;2022-12-18T05:20:22;4.32;;;2.85;;
10667;SDS011;5382;42.136;24.796;2022-12-18T05:22:49;3.92;;;3.20;;
10667;SDS011;5382;42.136;24.796;2022-12-18T05:25:16;3.70;;;3.28;;
10667;SDS011;5382;42.136;24.796;2022-12-18T05:27:45;4.50;;;3.97;;
10667;SDS011;5382;42.136;24.796;2022-12-18T05:30:13;4.82;;;3.03;;
10667;SDS011;5382;42.136;24.796;2022-12-18T05:32:41;4.93;;;3.13;;
10667;SDS011;5382;42.136;24.796;2022-12-18T05:35:09;4.13;;;2.92;;
10667;SDS011;5382;42.136;24.796;2022-12-18T05:37:37;5.40;;;3.85;;
10667;SDS011;5382;42.136;24.796;2022-12-18T05:40:04;7.55;;;4.07;;
10667;SDS011;5382;42.136;24.796;2022-12-18T05:42:31;5.57;;;4.15;;
10667;SDS011;5382;42.136;24.796;2022-12-18T05:44:59;4.28;;;3.60;;
10667;SDS011;5382;42.136;24.796;2022-12-18T05:47:26;7.05;;;3.75;;
10667;SDS011;5382;42.136;24.796;2022-12-18T05:49:53;4.88;;;3.55;;
10667;SDS011;5382;42.136;24.796;2022-12-18T05:52:21;5.35;;;4.28;;
10667;SDS011;5382;42.136;24.796;2022-12-18T05:54:47;3.88;;;3.40;;
10667;SDS011;5382;42.136;24.796;2022-12-18T05:57:14;5.55;;;3.83;;
10667;SDS011;5382;42.136;24.796;2022-12-18T05:59:41;6.38;;;3.95;;
10667;SDS011;5382;42.136;24.796;2022-12-18T06:02:09;9.43;;;4.13;;
10667;SDS011;5382;42.136;24.796;2022-12-18T06:04:36;3.85;;;2.92;;
10667;SDS011;5382;42.136;24.796;2022-12-18T06:07:03;4.90;;;2.70;;
10667;SDS011;5382;42.136;24.796;2022-12-18T06:09:30;3.90;;;3.50;;
10667;SDS011;5382;42.136;24.796;2022-12-18T06:11:57;4.00;;;2.83;;
10667;SDS011;5382;42.136;24.796;2022-12-18T06:14:23;3.90;;;3.08;;
10667;SDS011;5382;42.136;24.796;2022-12-18T06:16:50;5.07;;;3.85;;
10667;SDS011;5382;42.136;24.796;2022-12-18T06:19:19;4.75;;;3.25;;
10667;SDS011;5382;42.136;24.796;2022-12-18T06:21:45;4.78;;;3.17;;
10667;SDS011;5382;42.136;24.796;2022-12-18T06:24:14;5.15;;;3.60;;
10667;SDS011;5382;42.136;24.796;2022-12-18T06:26:41;4.22;;;3.20;;
10667;SDS011;5382;42.136;24.796;2022-12-18T06:29:08;4.80;;;2.88;;
10667;SDS011;5382;42.136;24.796;2022-12-18T06:31:35;8.85;;;3.33;;
10667;SDS011;5382;42.136;24.796;2022-12-18T06:34:02;5.18;;;3.42;;
10667;SDS011;5382;42.136;24.796;2022-12-18T06:36:31;3.08;;;2.47;;
10667;SDS011;5382;42.136;24.796;2022-12-18T06:38:58;4.22;;;3.63;;
10667;SDS011;5382;42.136;24.796;2022-12-18T06:41:25;5.63;;;3.85;;
10667;SDS011;5382;42.136;24.796;2022-12-18T06:43:52;6.38;;;3.42;;
10667;SDS011;5382;42.136;24.796;2022-12-18T06:46:19;6.43;;;3.72;;
10667;SDS011;5382;42.136;24.796;2022-12-18T06:48:47;4.30;;;2.85;;
10667;SDS011;5382;42.136;24.796;2022-12-18T06:51:16;5.25;;;3.55;;
10667;SDS011;5382;42.136;24.796;2022-12-18T06:53:45;4.97;;;3.42;;
10667;SDS011;5382;42.136;24.796;2022-12-18T06:56:12;4.07;;;3.28;;
10667;SDS011;5382;42.136;24.796;2022-12-18T06:58:39;5.13;;;3.88;;
10667;SDS011;5382;42.136;24.796;2022-12-18T07:01:06;4.68;;;3.22;;
10667;SDS011;5382;42.136;24.796;2022-12-18T07:03:34;4.47;;;3.75;;
10667;SDS011;5382;42.136;24.796;2022-12-18T07:06:01;6.53;;;3.50;;
10667;SDS011;5382;42.136;24.796;2022-12-18T07:08:28;6.85;;;4.38;;
10667;SDS011;5382;42.136;24.796;2022-12-18T07:10:57;4.95;;;4.00;;
10667;SDS011;5382;42.136;24.796;2022-12-18T07:13:25;5.65;;;3.42;;
10667;SDS011;5382;42.136;24.796;2022-12-18T07:15:52;5.18;;;3.90;;
10667;SDS011;5382;42.136;24.796;2022-12-18T07:18:20;4.35;;;3.95;;
10667;SDS011;5382;42.136;24.796;2022-12-18T07:20:47;4.15;;;3.25;;
10667;SDS011;5382;42.136;24.796;2022-12-18T07:23:14;5.32;;;3.72;;
10667;SDS011;5382;42.136;24.796;2022-12-18T07:25:40;6.40;;;4.32;;
10667;SDS011;5382;42.136;24.796;2022-12-18T07:28:09;7.28;;;3.40;;
10667;SDS011;5382;42.136;24.796;2022-12-18T07:30:37;3.25;;;2.75;;
10667;SDS011;5382;42.136;24.796;2022-12-18T07:33:04;4.35;;;2.83;;
10667;SDS011;5382;42.136;24.796;2022-12-18T07:35:32;4.50;;;3.00;;
10667;SDS011;5382;42.136;24.796;2022-12-18T07:37:59;8.93;;;4.13;;
10667;SDS011;5382;42.136;24.796;2022-12-18T07:40:25;5.32;;;4.07;;
10667;SDS011;5382;42.136;24.796;2022-12-18T07:42:52;3.90;;;2.78;;
10667;SDS011;5382;42.136;24.796;2022-12-18T07:45:20;5.45;;;3.75;;
10667;SDS011;5382;42.136;24.796;2022-12-18T07:47:47;4.45;;;3.22;;
10667;SDS011;5382;42.136;24.796;2022-12-18T07:50:14;5.28;;;3.90;;
10667;SDS011;5382;42.136;24.796;2022-12-18T07:52:41;5.88;;;4.22;;
10667;SDS011;5382;42.136;24.796;2022-12-18T07:55:08;7.13;;;3.83;;
10667;SDS011;5382;42.136;24.796;2022-12-18T07:57:35;5.35;;;3.40;;
10667;SDS011;5382;42.136;24.796;2022-12-18T08:00:02;5.63;;;4.53;;
10667;SDS011;5382;42.136;24.796;2022-12-18T08:02:31;6.78;;;4.60;;
10667;SDS011;5382;42.136;24.796;2022-12-18T08:04:58;7.10;;;4.00;;
10667;SDS011;5382;42.136;24.796;2022-12-18T08:07:24;5.72;;;4.30;;
10667;SDS011;5382;42.136;24.796;2022-12-18T08:09:51;6.65;;;4.00;;
10667;SDS011;5382;42.136;24.796;2022-12-18T08:12:18;5.18;;;4.07;;
10667;SDS011;5382;42.136;24.796;2022-12-18T08:14:45;6.50;;;4.20;;
10667;SDS011;5382;42.136;24.796;2022-12-18T08:17:12;8.73;;;5.43;;
10667;SDS011;5382;42.136;24.796;2022-12-18T08:19:42;7.28;;;4.13;;
10667;SDS011;5382;42.136;24.796;2022-12-18T08:22:09;6.88;;;5.00;;
10667;SDS011;5382;42.136;24.796;2022-12-18T08:24:36;7.45;;;5.45;;
10667;SDS011;5382;42.136;24.796;2022-12-18T08:27:03;11.57;;;4.32;;
10667;SDS011;5382;42.136;24.796;2022-12-18T08:29:29;7.35;;;4.70;;
10667;SDS011;5382;42.136;24.796;2022-12-18T08:31:57;4.80;;;3.78;;
10667;SDS011;5382;42.136;24.796;2022-12-18T08:34:23;5.40;;;3.90;;
10667;SDS011;5382;42.136;24.796;2022-12-18T08:36:53;7.55;;;3.90;;
10667;SDS011;5382;42.136;24.796;2022-12-18T08:39:20;6.60;;;4.40;;
10667;SDS011;5382;42.136;24.796;2022-12-18T08:41:47;5.57;;;3.85;;
10667;SDS011;5382;42.136;24.796;2022-12-18T08:44:33;10.35;;;4.70;;
10667;SDS011;5382;42.136;24.796;2022-12-18T08:47:02;6.00;;;4.07;;
10667;SDS011;5382;42.136;24.796;2022-12-18T08:49:30;6.40;;;4.82;;
10667;SDS011;5382;42.136;24.796;2022-12-18T08:51:58;9.05;;;5.75;;
10667;SDS011;5382;42.136;24.796;2022-12-18T08:54:25;11.27;;;5.03;;
10667;SDS011;5382;42.136;24.796;2022-12-18T08:56:52;5.93;;;4.35;;
10667;SDS011;5382;42.136;24.796;2022-12-18T08:59:19;6.18;;;4.85;;
10667;SDS011;5382;42.136;24.796;2022-12-18T09:01:46;9.20;;;5.90;;
10667;SDS011;5382;42.136;24.796;2022-12-18T09:04:13;9.68;;;4.90;;
10667;SDS011;5382;42.136;24.796;2022-12-18T09:06:40;6.45;;;4.55;;
10667;SDS011;5382;42.136;24.796;2022-12-18T09:09:08;4.15;;;3.72;;
10667;SDS011;5382;42.136;24.796;2022-12-18T09:11:36;6.70;;;4.80;;
10667;SDS011;5382;42.136;24.796;2022-12-18T09:14:03;14.45;;;10.95;;
10667;SDS011;5382;42.136;24.796;2022-12-18T09:16:30;9.25;;;5.53;;
10667;SDS011;5382;42.136;24.796;2022-12-18T09:18:59;6.10;;;4.90;;
10667;SDS011;5382;42.136;24.796;2022-12-18T09:21:30;6.25;;;5.18;;
10667;SDS011;5382;42.136;24.796;2022-12-18T09:23:59;4.07;;;3.45;;
10667;SDS011;5382;42.136;24.796;2022-12-18T09:26:27;5.28;;;4.53;;
10667;SDS011;5382;42.136;24.796;2022-12-18T09:28:54;9.57;;;3.97;;
10667;SDS011;5382;42.136;24.796;2022-12-18T09:31:21;5.78;;;3.65;;
10667;SDS011;5382;42.136;24.796;2022-12-18T09:33:49;5.70;;;4.53;;
10667;SDS011;5382;42.136;24.796;2022-12-18T09:36:16;5.22;;;4.72;;
10667;SDS011;5382;42.136;24.796;2022-12-18T09:38:43;7.60;;;5.90;;
10667;SDS011;5382;42.136;24.796;2022-12-18T09:41:15;6.32;;;5.07;;
10667;SDS011;5382;42.136;24.796;2022-12-18T09:44:05;6.95;;;4.53;;
10667;SDS011;5382;42.136;24.796;2022-12-18T09:46:40;6.93;;;4.10;;
10667;SDS011;5382;42.136;24.796;2022-12-18T09:49:12;9.18;;;6.15;;
10667;SDS011;5382;42.136;24.796;2022-12-18T09:51:43;7.72;;;4.93;;
10667;SDS011;5382;42.136;24.796;2022-12-18T09:54:15;6.05;;;4.13;;
10667;SDS011;5382;42.136;24.796;2022-12-18T09:56:47;6.57;;;5.20;;
10667;SDS011;5382;42.136;24.796;2022-12-18T09:59:17;8.35;;;6.25;;
10667;SDS011;5382;42.136;24.796;2022-12-18T10:01:49;6.50;;;5.78;;
10667;SDS011;5382;42.136;24.796;2022-12-18T10:04:16;8.90;;;6.78;;
10667;SDS011;5382;42.136;24.796;2022-12-18T10:06:44;9.15;;;6.53;;
10667;SDS011;5382;42.136;24.796;2022-12-18T10:09:19;10.02;;;6.47;;
10667;SDS011;5382;42.136;24.796;2022-12-18T10:11:56;7.30;;;5.78;;
10667;SDS011;5382;42.136;24.796;2022-12-18T10:14:34;8.60;;;4.82;;
10667;SDS011;5382;42.136;24.796;2022-12-18T10:17:11;7.97;;;5.43;;
10667;SDS011;5382;42.136;24.796;2022-12-18T10:19:47;6.55;;;4.78;;
10667;SDS011;5382;42.136;24.796;2022-12-18T10:22:22;8.35;;;4.68;;
10667;SDS011;5382;42.136;24.796;2022-12-18T10:25:02;8.25;;;5.88;;
10667;SDS011;5382;42.136;24.796;2022-12-18T10:27:40;9.18;;;5.18;;
10667;SDS011;5382;42.136;24.796;2022-12-18T10:30:12;7.18;;;4.55;;
10667;SDS011;5382;42.136;24.796;2022-12-18T10:32:41;11.50;;;6.43;;
10667;SDS011;5382;42.136;24.796;2022-12-18T10:35:11;7.57;;;5.18;;
10667;SDS011;5382;42.136;24.796;2022-12-18T10:37:59;8.35;;;6.43;;
10667;SDS011;5382;42.136;24.796;2022-12-18T10:40:31;23.02;;;17.40;;
10667;SDS011;5382;42.136;24.796;2022-12-18T10:43:10;19.58;;;11.55;;
10667;SDS011;5382;42.136;24.796;2022-12-18T10:45:39;10.75;;;5.10;;
10667;SDS011;5382;42.136;24.796;2022-12-18T10:48:17;8.23;;;4.68;;
10667;SDS011;5382;42.136;24.796;2022-12-18T10:50:46;7.63;;;4.75;;
10667;SDS011;5382;42.136;24.796;2022-12-18T10:53:18;7.03;;;4.82;;
10667;SDS011;5382;42.136;24.796;2022-12-18T10:55:47;6.82;;;4.68;;
10667;SDS011;5382;42.136;24.796;2022-12-18T10:58:22;8.48;;;6.53;;
10667;SDS011;5382;42.136;24.796;2022-12-18T11:01:07;7.28;;;6.10;;
10667;SDS011;5382;42.136;24.796;2022-12-18T11:03:36;7.90;;;5.72;;
10667;SDS011;5382;42.136;24.796;2022-12-18T11:06:05;7.57;;;4.60;;
10667;SDS011;5382;42.136;24.796;2022-12-18T11:08:34;8.60;;;5.20;;
10667;SDS011;5382;42.136;24.796;2022-12-18T11:11:01;8.15;;;5.93;;
10667;SDS011;5382;42.136;24.796;2022-12-18T11:13:30;8.63;;;5.30;;
10667;SDS011;5382;42.136;24.796;2022-12-18T11:15:57;7.38;;;4.38;;
10667;SDS011;5382;42.136;24.796;2022-12-18T11:18:26;7.50;;;5.18;;
10667;SDS011;5382;42.136;24.796;2022-12-18T11:20:55;7.53;;;5.22;;
10667;SDS011;5382;42.136;24.796;2022-12-18T11:23:24;7.22;;;5.00;;
10667;SDS011;5382;42.136;24.796;2022-12-18T11:25:52;6.40;;;4.68;;
10667;SDS011;5382;42.136;24.796;2022-12-18T11:28:25;7.20;;;4.88;;
10667;SDS011;5382;42.136;24.796;2022-12-18T11:33:54;4.43;;;3.63;;
10667;SDS011;5382;42.136;24.796;2022-12-18T11:36:25;5.85;;;4.35;;
10667;SDS011;5382;42.136;24.796;2022-12-18T11:38:59;7.43;;;5.35;;
10667;SDS011;5382;42.136;24.796;2022-12-18T11:41:32;7.18;;;5.05;;
10667;SDS011;5382;42.136;24.796;2022-12-18T11:44:28;5.35;;;4.65;;
10667;SDS011;5382;42.136;24.796;2022-12-18T11:47:05;10.85;;;6.20;;
10667;SDS011;5382;42.136;24.796;2022-12-18T11:49:38;6.88;;;4.32;;
10667;SDS011;5382;42.136;24.796;2022-12-18T11:52:14;7.05;;;4.45;;
10667;SDS011;5382;42.136;24.796;2022-12-18T11:54:44;7.25;;;5.55;;
10667;SDS011;5382;42.136;24.796;2022-12-18T11:57:14;8.93;;;6.05;;
10667;SDS011;5382;42.136;24.796;2022-12-18T11:59:51;8.27;;;5.95;;
10667;SDS011;5382;42.136;24.796;2022-12-18T12:02:33;9.55;;;6.43;;
10667;SDS011;5382;42.136;24.796;2022-12-18T12:05:15;10.05;;;5.97;;
10667;SDS011;5382;42.136;24.796;2022-12-18T12:08:03;11.68;;;7.25;;
10667;SDS011;5382;42.136;24.796;2022-12-18T12:10:42;10.25;;;6.35;;
10667;SDS011;5382;42.136;24.796;2022-12-18T12:13:22;10.85;;;6.60;;
10667;SDS011;5382;42.136;24.796;2022-12-18T12:15:59;11.63;;;6.70;;
10667;SDS011;5382;42.136;24.796;2022-12-18T12:18:40;10.00;;;7.05;;
10667;SDS011;5382;42.136;24.796;2022-12-18T12:21:17;9.63;;;6.50;;
10667;SDS011;5382;42.136;24.796;2022-12-18T12:23:51;9.35;;;6.43;;
10667;SDS011;5382;42.136;24.796;2022-12-18T12:26:30;10.45;;;6.80;;
10667;SDS011;5382;42.136;24.796;2022-12-18T12:29:07;11.27;;;5.90;;
10667;SDS011;5382;42.136;24.796;2022-12-18T12:31:50;12.82;;;6.30;;
10667;SDS011;5382;42.136;24.796;2022-12-18T12:34:30;9.43;;;6.13;;
10667;SDS011;5382;42.136;24.796;2022-12-18T12:37:11;8.38;;;5.75;;
10667;SDS011;5382;42.136;24.796;2022-12-18T12:39:44;7.63;;;5.20;;
10667;SDS011;5382;42.136;24.796;2022-12-18T12:42:15;8.63;;;5.75;;
10667;SDS011;5382;42.136;24.796;2022-12-18T12:45:07;10.23;;;6.13;;
10667;SDS011;5382;42.136;24.796;2022-12-18T12:47:46;9.75;;;5.90;;
10667;SDS011;5382;42.136;24.796;2022-12-18T12:50:18;7.80;;;5.55;;
10667;SDS011;5382;42.136;24.796;2022-12-18T12:52:49;14.93;;;7.78;;
10667;SDS011;5382;42.136;24.796;2022-12-18T12:55:20;9.68;;;6.50;;
10667;SDS011;5382;42.136;24.796;2022-12-18T12:57:52;8.70;;;6.65;;
10667;SDS011;5382;42.136;24.796;2022-12-18T13:00:25;12.25;;;5.80;;
10667;SDS011;5382;42.136;24.796;2022-12-18T13:02:59;8.93;;;5.90;;
10667;SDS011;5382;42.136;24.796;2022-12-18T13:05:38;11.48;;;6.68;;
10667;SDS011;5382;42.136;24.796;2022-12-18T13:08:10;9.05;;;5.93;;
10667;SDS011;5382;42.136;24.796;2022-12-18T13:10:38;12.18;;;6.57;;
10667;SDS011;5382;42.136;24.796;2022-12-18T13:13:07;11.52;;;6.63;;
10667;SDS011;5382;42.136;24.796;2022-12-18T13:15:37;11.95;;;8.05;;
10667;SDS011;5382;42.136;24.796;2022-12-18T13:18:16;13.20;;;6.22;;
10667;SDS011;5382;42.136;24.796;2022-12-18T13:20:47;8.98;;;5.97;;
10667;SDS011;5382;42.136;24.796;2022-12-18T13:23:19;10.05;;;6.35;;
10667;SDS011;5382;42.136;24.796;2022-12-18T13:25:58;11.68;;;7.30;;
10667;SDS011;5382;42.136;24.796;2022-12-18T13:34:34;11.80;;;6.75;;
10667;SDS011;5382;42.136;24.796;2022-12-18T13:43:25;9.95;;;6.70;;
10667;SDS011;5382;42.136;24.796;2022-12-18T13:46:03;12.90;;;7.65;;
10667;SDS011;5382;42.136;24.796;2022-12-18T13:48:48;9.05;;;6.55;;
10667;SDS011;5382;42.136;24.796;2022-12-18T13:51:21;11.50;;;6.43;;
10667;SDS011;5382;42.136;24.796;2022-12-18T13:53:49;9.80;;;6.50;;
10667;SDS011;5382;42.136;24.796;2022-12-18T13:56:21;10.32;;;7.07;;
10667;SDS011;5382;42.136;24.796;2022-12-18T14:01:44;11.18;;;7.65;;
10667;SDS011;5382;42.136;24.796;2022-12-18T14:04:16;13.23;;;7.85;;
10667;SDS011;5382;42.136;24.796;2022-12-18T14:06:46;23.70;;;8.65;;
10667;SDS011;5382;42.136;24.796;2022-12-18T14:09:14;11.43;;;8.52;;
10667;SDS011;5382;42.136;24.796;2022-12-18T14:11:46;15.88;;;7.38;;
10667;SDS011;5382;42.136;24.796;2022-12-18T14:14:15;10.13;;;7.57;;
10667;SDS011;5382;42.136;24.796;2022-12-18T14:16:43;10.68;;;6.97;;
10667;SDS011;5382;42.136;24.796;2022-12-18T14:19:12;15.45;;;8.07;;
10667;SDS011;5382;42.136;24.796;2022-12-18T14:21:45;14.48;;;10.65;;
10667;SDS011;5382;42.136;24.796;2022-12-18T14:24:13;12.10;;;9.40;;
10667;SDS011;5382;42.136;24.796;2022-12-18T14:26:42;13.98;;;9.77;;
10667;SDS011;5382;42.136;24.796;2022-12-18T14:29:24;13.68;;;8.48;;
10667;SDS011;5382;42.136;24.796;2022-12-18T14:32:06;11.77;;;8.45;;
10667;SDS011;5382;42.136;24.796;2022-12-18T14:34:35;11.40;;;7.82;;
10667;SDS011;5382;42.136;24.796;2022-12-18T14:37:02;10.80;;;7.43;;
10667;SDS011;5382;42.136;24.796;2022-12-18T14:39:29;15.75;;;7.30;;
10667;SDS011;5382;42.136;24.796;2022-12-18T14:41:56;13.38;;;9.07;;
10667;SDS011;5382;42.136;24.796;2022-12-18T14:44:24;11.82;;;8.40;;
10667;SDS011;5382;42.136;24.796;2022-12-18T14:46:51;12.68;;;7.47;;
10667;SDS011;5382;42.136;24.796;2022-12-18T14:49:19;12.63;;;7.45;;
10667;SDS011;5382;42.136;24.796;2022-12-18T14:51:52;10.90;;;8.10;;
10667;SDS011;5382;42.136;24.796;2022-12-18T14:54:20;12.65;;;7.95;;
10667;SDS011;5382;42.136;24.796;2022-12-18T14:56:48;15.57;;;8.82;;
10667;SDS011;5382;42.136;24.796;2022-12-18T14:59:21;15.90;;;10.57;;
10667;SDS011;5382;42.136;24.796;2022-12-18T15:01:54;15.43;;;10.02;;
10667;SDS011;5382;42.136;24.796;2022-12-18T15:04:26;15.85;;;10.70;;
10667;SDS011;5382;42.136;24.796;2022-12-18T15:07:12;17.40;;;11.55;;
10667;SDS011;5382;42.136;24.796;2022-12-18T15:09:41;21.20;;;10.75;;
10667;SDS011;5382;42.136;24.796;2022-12-18T15:12:28;19.35;;;11.75;;